sensor_id;sensor_type;location;lat;lon;timestamp;temperature;humidity
23291;DHT22;11814;44.686;10.842;2023-02-11T00:01:35;1.00;81.80
23291;DHT22;11814;44.686;10.842;2023-02-11T00:04:02;1.00;81.90
23291;DHT22;11814;44.686;10.842;2023-02-11T00:06:29;1.00;82.50
23291;DHT22;11814;44.686;10.842;2023-02-11T00:08:56;0.90;81.70
23291;DHT22;11814;44.686;10.842;2023-02-11T00:11:23;0.90;82.00
23291;DHT22;11814;44.686;10.842;2023-02-11T00:14:00;0.90;82.20
23291;DHT22;11814;44.686;10.842;2023-02-11T00:16:27;0.90;82.30
23291;DHT22;11814;44.686;10.842;2023-02-11T00:18:54;0.90;82.10
23291;DHT22;11814;44.686;10.842;2023-02-11T00:21:22;0.80;82.00
23291;DHT22;11814;44.686;10.842;2023-02-11T00:23:49;0.70;82.20
23291;DHT22;11814;44.686;10.842;2023-02-11T00:26:23;0.70;82.50
23291;DHT22;11814;44.686;10.842;2023-02-11T00:28:50;0.70;82.60
23291;DHT22;11814;44.686;10.842;2023-02-11T00:31:17;0.70;82.60
23291;DHT22;11814;44.686;10.842;2023-02-11T00:33:43;0.70;82.90
23291;DHT22;11814;44.686;10.842;2023-02-11T00:36:13;0.70;83.70
23291;DHT22;11814;44.686;10.842;2023-02-11T00:38:41;0.70;83.00
23291;DHT22;11814;44.686;10.842;2023-02-11T00:41:07;0.70;83.10
23291;DHT22;11814;44.686;10.842;2023-02-11T00:43:32;0.70;83.30
23291;DHT22;11814;44.686;10.842;2023-02-11T00:45:59;0.70;83.10
23291;DHT22;11814;44.686;10.842;2023-02-11T00:48:25;0.70;83.20
23291;DHT22;11814;44.686;10.842;2023-02-11T00:50:50;0.70;83.10
23291;DHT22;11814;44.686;10.842;2023-02-11T00:53:16;0.70;83.20
23291;DHT22;11814;44.686;10.842;2023-02-11T00:55:42;0.60;83.20
23291;DHT22;11814;44.686;10.842;2023-02-11T00:58:08;0.70;83.40
23291;DHT22;11814;44.686;10.842;2023-02-11T01:00:33;0.70;83.20
23291;DHT22;11814;44.686;10.842;2023-02-11T01:02:59;0.60;82.80
23291;DHT22;11814;44.686;10.842;2023-02-11T01:05:25;0.50;83.00
23291;DHT22;11814;44.686;10.842;2023-02-11T01:07:50;0.50;83.30
23291;DHT22;11814;44.686;10.842;2023-02-11T01:10:16;0.60;83.40
23291;DHT22;11814;44.686;10.842;2023-02-11T01:12:42;0.60;83.10
23291;DHT22;11814;44.686;10.842;2023-02-11T01:15:11;0.50;83.10
23291;DHT22;11814;44.686;10.842;2023-02-11T01:17:38;0.50;83.30
23291;DHT22;11814;44.686;10.842;2023-02-11T01:20:08;0.50;83.30
23291;DHT22;11814;44.686;10.842;2023-02-11T01:22:36;0.50;83.40
23291;DHT22;11814;44.686;10.842;2023-02-11T01:25:06;0.50;83.50
23291;DHT22;11814;44.686;10.842;2023-02-11T01:27:31;0.50;83.80
23291;DHT22;11814;44.686;10.842;2023-02-11T01:29:57;0.50;83.90
23291;DHT22;11814;44.686;10.842;2023-02-11T01:32:23;0.50;83.90
23291;DHT22;11814;44.686;10.842;2023-02-11T01:34:49;0.50;84.00
23291;DHT22;11814;44.686;10.842;2023-02-11T01:37:15;0.50;83.90
23291;DHT22;11814;44.686;10.842;2023-02-11T01:39:40;0.40;84.00
23291;DHT22;11814;44.686;10.842;2023-02-11T01:42:06;0.40;84.20
23291;DHT22;11814;44.686;10.842;2023-02-11T01:44:37;0.50;84.20
23291;DHT22;11814;44.686;10.842;2023-02-11T01:47:03;0.50;84.10
23291;DHT22;11814;44.686;10.842;2023-02-11T01:49:54;0.50;83.80
23291;DHT22;11814;44.686;10.842;2023-02-11T01:52:34;0.40;83.70
23291;DHT22;11814;44.686;10.842;2023-02-11T01:55:09;0.40;83.90
23291;DHT22;11814;44.686;10.842;2023-02-11T01:57:59;0.40;83.90
23291;DHT22;11814;44.686;10.842;2023-02-11T02:00:34;0.40;83.70
23291;DHT22;11814;44.686;10.842;2023-02-11T02:03:20;0.30;83.90
23291;DHT22;11814;44.686;10.842;2023-02-11T02:11:02;0.30;84.40
23291;DHT22;11814;44.686;10.842;2023-02-11T02:13:30;0.30;84.50
23291;DHT22;11814;44.686;10.842;2023-02-11T02:16:02;0.30;84.40
23291;DHT22;11814;44.686;10.842;2023-02-11T02:35:40;0.30;84.90
23291;DHT22;11814;44.686;10.842;2023-02-11T02:38:15;0.30;85.00
23291;DHT22;11814;44.686;10.842;2023-02-11T02:41:01;0.20;84.90
23291;DHT22;11814;44.686;10.842;2023-02-11T02:43:28;0.20;84.90
23291;DHT22;11814;44.686;10.842;2023-02-11T02:46:07;0.10;85.00
23291;DHT22;11814;44.686;10.842;2023-02-11T02:48:33;0.10;85.00
23291;DHT22;11814;44.686;10.842;2023-02-11T02:54:12;0.10;84.60
23291;DHT22;11814;44.686;10.842;2023-02-11T03:02:21;0.10;84.40
23291;DHT22;11814;44.686;10.842;2023-02-11T03:07:57;0.00;84.20
23291;DHT22;11814;44.686;10.842;2023-02-11T03:10:29;0.00;84.10
23291;DHT22;11814;44.686;10.842;2023-02-11T03:12:56;0.00;83.90
23291;DHT22;11814;44.686;10.842;2023-02-11T03:15:24;-0.10;83.80
23291;DHT22;11814;44.686;10.842;2023-02-11T03:17:53;-0.20;83.90
23291;DHT22;11814;44.686;10.842;2023-02-11T03:20:21;-0.10;84.20
23291;DHT22;11814;44.686;10.842;2023-02-11T03:25:13;-0.10;84.40
23291;DHT22;11814;44.686;10.842;2023-02-11T03:30:37;-0.20;84.50
23291;DHT22;11814;44.686;10.842;2023-02-11T03:33:17;-0.20;84.40
23291;DHT22;11814;44.686;10.842;2023-02-11T03:35:53;-0.30;84.10
23291;DHT22;11814;44.686;10.842;2023-02-11T03:38:44;-0.30;84.40
23291;DHT22;11814;44.686;10.842;2023-02-11T03:41:14;-0.30;84.50
23291;DHT22;11814;44.686;10.842;2023-02-11T03:43:45;-0.40;84.30
23291;DHT22;11814;44.686;10.842;2023-02-11T03:46:16;-0.40;84.60
23291;DHT22;11814;44.686;10.842;2023-02-11T03:48:47;-0.50;84.60
23291;DHT22;11814;44.686;10.842;2023-02-11T03:51:15;-0.50;84.50
23291;DHT22;11814;44.686;10.842;2023-02-11T03:53:43;-0.60;84.40
23291;DHT22;11814;44.686;10.842;2023-02-11T03:56:14;-0.60;84.80
23291;DHT22;11814;44.686;10.842;2023-02-11T03:58:44;-0.60;85.00
23291;DHT22;11814;44.686;10.842;2023-02-11T04:01:10;-0.60;85.00
23291;DHT22;11814;44.686;10.842;2023-02-11T04:03:36;-0.60;84.90
23291;DHT22;11814;44.686;10.842;2023-02-11T04:06:02;-0.60;84.80
23291;DHT22;11814;44.686;10.842;2023-02-11T04:08:28;-0.60;85.70
23291;DHT22;11814;44.686;10.842;2023-02-11T04:10:54;-0.60;85.10
23291;DHT22;11814;44.686;10.842;2023-02-11T04:13:21;-0.60;85.30
23291;DHT22;11814;44.686;10.842;2023-02-11T04:15:47;-0.60;85.40
23291;DHT22;11814;44.686;10.842;2023-02-11T04:18:12;-0.50;85.70
23291;DHT22;11814;44.686;10.842;2023-02-11T04:20:38;-0.50;85.50
23291;DHT22;11814;44.686;10.842;2023-02-11T04:23:04;-0.50;85.50
23291;DHT22;11814;44.686;10.842;2023-02-11T04:25:30;-0.50;85.70
23291;DHT22;11814;44.686;10.842;2023-02-11T04:27:55;-0.50;85.70
23291;DHT22;11814;44.686;10.842;2023-02-11T04:30:21;-0.60;86.00
23291;DHT22;11814;44.686;10.842;2023-02-11T04:32:47;-0.60;86.40
23291;DHT22;11814;44.686;10.842;2023-02-11T04:35:13;-0.50;86.70
23291;DHT22;11814;44.686;10.842;2023-02-11T04:37:39;-0.50;86.70
23291;DHT22;11814;44.686;10.842;2023-02-11T04:40:05;-0.50;86.60
23291;DHT22;11814;44.686;10.842;2023-02-11T04:42:31;-0.50;86.70
23291;DHT22;11814;44.686;10.842;2023-02-11T04:44:56;-0.50;86.90
23291;DHT22;11814;44.686;10.842;2023-02-11T04:47:22;-0.50;87.00
23291;DHT22;11814;44.686;10.842;2023-02-11T04:49:48;-0.50;87.00
23291;DHT22;11814;44.686;10.842;2023-02-11T04:52:13;-0.50;87.00
23291;DHT22;11814;44.686;10.842;2023-02-11T04:54:39;-0.50;87.30
23291;DHT22;11814;44.686;10.842;2023-02-11T04:57:05;-0.40;87.40
23291;DHT22;11814;44.686;10.842;2023-02-11T04:59:31;-0.50;87.20
23291;DHT22;11814;44.686;10.842;2023-02-11T05:01:57;-0.50;87.40
23291;DHT22;11814;44.686;10.842;2023-02-11T05:04:22;-0.50;87.60
23291;DHT22;11814;44.686;10.842;2023-02-11T05:06:48;-0.60;87.60
23291;DHT22;11814;44.686;10.842;2023-02-11T05:09:14;-0.50;87.80
23291;DHT22;11814;44.686;10.842;2023-02-11T05:11:40;-0.60;88.10
23291;DHT22;11814;44.686;10.842;2023-02-11T05:14:06;-0.50;88.30
23291;DHT22;11814;44.686;10.842;2023-02-11T05:16:32;-0.50;88.40
23291;DHT22;11814;44.686;10.842;2023-02-11T05:18:58;-0.40;88.50
23291;DHT22;11814;44.686;10.842;2023-02-11T05:21:24;-0.40;88.50
23291;DHT22;11814;44.686;10.842;2023-02-11T05:23:50;-0.40;88.40
23291;DHT22;11814;44.686;10.842;2023-02-11T05:26:16;-0.40;88.20
23291;DHT22;11814;44.686;10.842;2023-02-11T05:28:43;-0.40;87.80
23291;DHT22;11814;44.686;10.842;2023-02-11T05:31:09;-0.40;87.40
23291;DHT22;11814;44.686;10.842;2023-02-11T05:33:36;-0.50;87.20
23291;DHT22;11814;44.686;10.842;2023-02-11T05:36:04;-0.60;86.90
23291;DHT22;11814;44.686;10.842;2023-02-11T05:38:30;-0.60;87.00
23291;DHT22;11814;44.686;10.842;2023-02-11T05:40:56;-0.70;87.00
23291;DHT22;11814;44.686;10.842;2023-02-11T05:43:22;-0.70;87.20
23291;DHT22;11814;44.686;10.842;2023-02-11T05:45:48;-0.70;87.00
23291;DHT22;11814;44.686;10.842;2023-02-11T05:48:14;-0.70;86.70
23291;DHT22;11814;44.686;10.842;2023-02-11T05:50:40;-0.80;86.50
23291;DHT22;11814;44.686;10.842;2023-02-11T05:53:06;-0.90;86.50
23291;DHT22;11814;44.686;10.842;2023-02-11T05:55:32;-1.00;86.70
23291;DHT22;11814;44.686;10.842;2023-02-11T05:57:58;-1.10;86.90
23291;DHT22;11814;44.686;10.842;2023-02-11T06:00:24;-1.20;86.70
23291;DHT22;11814;44.686;10.842;2023-02-11T06:02:49;-1.20;87.20
23291;DHT22;11814;44.686;10.842;2023-02-11T06:05:15;-1.20;87.40
23291;DHT22;11814;44.686;10.842;2023-02-11T06:07:41;-1.10;87.30
23291;DHT22;11814;44.686;10.842;2023-02-11T06:10:08;-1.10;87.30
23291;DHT22;11814;44.686;10.842;2023-02-11T06:12:35;-1.10;87.30
23291;DHT22;11814;44.686;10.842;2023-02-11T06:15:01;-1.00;87.40
23291;DHT22;11814;44.686;10.842;2023-02-11T06:17:26;-0.90;87.60
23291;DHT22;11814;44.686;10.842;2023-02-11T06:19:57;-0.90;87.60
23291;DHT22;11814;44.686;10.842;2023-02-11T06:22:23;-0.90;87.50
23291;DHT22;11814;44.686;10.842;2023-02-11T06:24:48;-0.80;87.80
23291;DHT22;11814;44.686;10.842;2023-02-11T06:27:14;-0.80;87.90
23291;DHT22;11814;44.686;10.842;2023-02-11T06:29:40;-0.80;88.00
23291;DHT22;11814;44.686;10.842;2023-02-11T06:32:06;-0.70;88.50
23291;DHT22;11814;44.686;10.842;2023-02-11T06:34:31;-0.70;87.70
23291;DHT22;11814;44.686;10.842;2023-02-11T06:36:57;-0.60;87.70
23291;DHT22;11814;44.686;10.842;2023-02-11T06:39:23;-0.60;87.50
23291;DHT22;11814;44.686;10.842;2023-02-11T06:41:48;-0.50;87.50
23291;DHT22;11814;44.686;10.842;2023-02-11T06:44:14;-0.50;87.20
23291;DHT22;11814;44.686;10.842;2023-02-11T06:46:40;-0.40;87.00
23291;DHT22;11814;44.686;10.842;2023-02-11T06:49:06;-0.40;86.70
23291;DHT22;11814;44.686;10.842;2023-02-11T06:51:31;-0.40;86.50
23291;DHT22;11814;44.686;10.842;2023-02-11T06:53:57;-0.30;86.30
23291;DHT22;11814;44.686;10.842;2023-02-11T06:56:23;-0.20;86.20
23291;DHT22;11814;44.686;10.842;2023-02-11T06:58:53;-0.10;85.90
23291;DHT22;11814;44.686;10.842;2023-02-11T07:01:20;0.10;85.70
23291;DHT22;11814;44.686;10.842;2023-02-11T07:03:46;0.20;85.10
23291;DHT22;11814;44.686;10.842;2023-02-11T07:06:14;0.30;84.80
23291;DHT22;11814;44.686;10.842;2023-02-11T07:08:41;0.80;85.00
23291;DHT22;11814;44.686;10.842;2023-02-11T07:11:13;1.30;84.30
23291;DHT22;11814;44.686;10.842;2023-02-11T07:13:39;1.80;83.50
23291;DHT22;11814;44.686;10.842;2023-02-11T07:16:06;2.30;82.30
23291;DHT22;11814;44.686;10.842;2023-02-11T07:18:32;2.70;80.90
23291;DHT22;11814;44.686;10.842;2023-02-11T07:20:58;2.90;79.90
23291;DHT22;11814;44.686;10.842;2023-02-11T07:23:24;3.00;79.20
23291;DHT22;11814;44.686;10.842;2023-02-11T07:25:49;3.00;78.50
23291;DHT22;11814;44.686;10.842;2023-02-11T07:28:15;2.90;78.10
23291;DHT22;11814;44.686;10.842;2023-02-11T07:30:41;2.90;77.90
23291;DHT22;11814;44.686;10.842;2023-02-11T07:33:07;3.00;78.10
23291;DHT22;11814;44.686;10.842;2023-02-11T07:35:32;3.20;77.70
23291;DHT22;11814;44.686;10.842;2023-02-11T07:37:58;3.30;77.30
23291;DHT22;11814;44.686;10.842;2023-02-11T07:40:24;3.60;77.20
23291;DHT22;11814;44.686;10.842;2023-02-11T07:42:49;3.80;76.70
23291;DHT22;11814;44.686;10.842;2023-02-11T07:45:15;4.00;76.50
23291;DHT22;11814;44.686;10.842;2023-02-11T07:47:42;4.60;76.00
23291;DHT22;11814;44.686;10.842;2023-02-11T07:50:08;4.90;74.70
23291;DHT22;11814;44.686;10.842;2023-02-11T07:52:34;5.00;73.90
23291;DHT22;11814;44.686;10.842;2023-02-11T07:55:00;5.30;73.50
23291;DHT22;11814;44.686;10.842;2023-02-11T07:57:26;5.50;73.10
23291;DHT22;11814;44.686;10.842;2023-02-11T07:59:52;5.70;72.80
23291;DHT22;11814;44.686;10.842;2023-02-11T08:02:18;5.70;72.40
23291;DHT22;11814;44.686;10.842;2023-02-11T08:04:46;5.60;72.20
23291;DHT22;11814;44.686;10.842;2023-02-11T08:07:16;5.60;72.00
23291;DHT22;11814;44.686;10.842;2023-02-11T08:09:42;5.60;72.10
23291;DHT22;11814;44.686;10.842;2023-02-11T08:12:08;5.60;72.20
23291;DHT22;11814;44.686;10.842;2023-02-11T08:14:34;5.60;72.20
23291;DHT22;11814;44.686;10.842;2023-02-11T08:17:00;5.50;72.50
23291;DHT22;11814;44.686;10.842;2023-02-11T08:19:25;5.60;72.90
23291;DHT22;11814;44.686;10.842;2023-02-11T08:21:55;5.70;73.40
23291;DHT22;11814;44.686;10.842;2023-02-11T08:24:21;6.00;74.00
23291;DHT22;11814;44.686;10.842;2023-02-11T08:26:48;6.50;73.80
23291;DHT22;11814;44.686;10.842;2023-02-11T08:29:14;6.90;72.90
23291;DHT22;11814;44.686;10.842;2023-02-11T08:31:43;7.10;72.00
23291;DHT22;11814;44.686;10.842;2023-02-11T08:34:10;7.20;71.00
23291;DHT22;11814;44.686;10.842;2023-02-11T08:36:37;7.20;70.80
23291;DHT22;11814;44.686;10.842;2023-02-11T08:39:05;7.20;70.70
23291;DHT22;11814;44.686;10.842;2023-02-11T08:41:32;7.30;70.70
23291;DHT22;11814;44.686;10.842;2023-02-11T08:43:58;7.50;70.30
23291;DHT22;11814;44.686;10.842;2023-02-11T08:46:24;7.50;70.00
23291;DHT22;11814;44.686;10.842;2023-02-11T08:48:51;7.50;69.60
23291;DHT22;11814;44.686;10.842;2023-02-11T08:51:20;7.50;68.90
23291;DHT22;11814;44.686;10.842;2023-02-11T08:53:46;7.40;68.50
23291;DHT22;11814;44.686;10.842;2023-02-11T08:56:13;7.50;68.30
23291;DHT22;11814;44.686;10.842;2023-02-11T08:58:39;7.60;68.30
23291;DHT22;11814;44.686;10.842;2023-02-11T09:01:17;7.70;67.90
23291;DHT22;11814;44.686;10.842;2023-02-11T09:03:43;7.80;67.60
23291;DHT22;11814;44.686;10.842;2023-02-11T09:06:10;7.90;67.10
23291;DHT22;11814;44.686;10.842;2023-02-11T09:08:38;8.10;66.50
23291;DHT22;11814;44.686;10.842;2023-02-11T09:11:04;8.50;66.50
23291;DHT22;11814;44.686;10.842;2023-02-11T09:13:31;9.00;66.30
23291;DHT22;11814;44.686;10.842;2023-02-11T09:15:59;9.50;64.80
23291;DHT22;11814;44.686;10.842;2023-02-11T09:18:25;9.70;63.20
23291;DHT22;11814;44.686;10.842;2023-02-11T09:20:53;10.10;62.10
23291;DHT22;11814;44.686;10.842;2023-02-11T09:23:19;10.60;61.90
23291;DHT22;11814;44.686;10.842;2023-02-11T09:25:44;11.20;61.30
23291;DHT22;11814;44.686;10.842;2023-02-11T09:28:10;11.80;59.90
23291;DHT22;11814;44.686;10.842;2023-02-11T09:30:37;12.50;58.70
23291;DHT22;11814;44.686;10.842;2023-02-11T09:33:03;13.30;57.40
23291;DHT22;11814;44.686;10.842;2023-02-11T09:35:29;14.10;55.70
23291;DHT22;11814;44.686;10.842;2023-02-11T09:37:54;14.80;54.50
23291;DHT22;11814;44.686;10.842;2023-02-11T09:40:21;15.30;52.80
23291;DHT22;11814;44.686;10.842;2023-02-11T09:42:52;15.90;51.80
23291;DHT22;11814;44.686;10.842;2023-02-11T09:45:24;16.40;50.20
23291;DHT22;11814;44.686;10.842;2023-02-11T09:48:03;16.50;48.70
23291;DHT22;11814;44.686;10.842;2023-02-11T09:50:34;16.50;47.20
23291;DHT22;11814;44.686;10.842;2023-02-11T09:55:46;16.00;46.10
23291;DHT22;11814;44.686;10.842;2023-02-11T09:58:24;15.50;46.00
23291;DHT22;11814;44.686;10.842;2023-02-11T10:03:59;15.00;46.30
23291;DHT22;11814;44.686;10.842;2023-02-11T10:09:45;15.30;46.20
23291;DHT22;11814;44.686;10.842;2023-02-11T10:23:28;14.20;46.00
23291;DHT22;11814;44.686;10.842;2023-02-11T10:25:56;13.90;46.30
23291;DHT22;11814;44.686;10.842;2023-02-11T10:28:29;13.60;47.40
23291;DHT22;11814;44.686;10.842;2023-02-11T10:31:01;13.30;46.90
23291;DHT22;11814;44.686;10.842;2023-02-11T10:33:33;13.10;47.20
23291;DHT22;11814;44.686;10.842;2023-02-11T10:36:02;12.80;47.30
23291;DHT22;11814;44.686;10.842;2023-02-11T10:38:28;12.60;47.80
23291;DHT22;11814;44.686;10.842;2023-02-11T10:40:55;12.50;48.30
23291;DHT22;11814;44.686;10.842;2023-02-11T10:43:25;12.50;48.90
23291;DHT22;11814;44.686;10.842;2023-02-11T10:45:53;12.50;49.00
23291;DHT22;11814;44.686;10.842;2023-02-11T10:54:16;12.90;48.90
23291;DHT22;11814;44.686;10.842;2023-02-11T10:56:46;13.30;48.80
23291;DHT22;11814;44.686;10.842;2023-02-11T10:59:29;13.50;48.40
23291;DHT22;11814;44.686;10.842;2023-02-11T11:02:04;13.60;48.10
23291;DHT22;11814;44.686;10.842;2023-02-11T11:07:21;13.30;47.60
23291;DHT22;11814;44.686;10.842;2023-02-11T11:10:03;13.10;47.50
23291;DHT22;11814;44.686;10.842;2023-02-11T11:17:34;12.90;48.00
23291;DHT22;11814;44.686;10.842;2023-02-11T11:20:26;12.90;48.10
23291;DHT22;11814;44.686;10.842;2023-02-11T11:23:27;12.90;48.20
23291;DHT22;11814;44.686;10.842;2023-02-11T11:26:13;12.90;48.20
23291;DHT22;11814;44.686;10.842;2023-02-11T11:31:19;13.00;48.20
23291;DHT22;11814;44.686;10.842;2023-02-11T11:33:46;13.10;48.00
23291;DHT22;11814;44.686;10.842;2023-02-11T11:36:16;13.10;48.00
23291;DHT22;11814;44.686;10.842;2023-02-11T11:38:54;13.20;48.00
23291;DHT22;11814;44.686;10.842;2023-02-11T11:41:26;13.50;47.60
23291;DHT22;11814;44.686;10.842;2023-02-11T11:51:31;13.20;47.80
23291;DHT22;11814;44.686;10.842;2023-02-11T11:53:59;13.20;47.70
23291;DHT22;11814;44.686;10.842;2023-02-11T11:59:24;13.20;47.70
23291;DHT22;11814;44.686;10.842;2023-02-11T12:12:31;12.60;48.30
23291;DHT22;11814;44.686;10.842;2023-02-11T12:17:55;12.50;48.40
23291;DHT22;11814;44.686;10.842;2023-02-11T12:20:37;12.50;48.40
23291;DHT22;11814;44.686;10.842;2023-02-11T12:26:17;12.30;48.60
23291;DHT22;11814;44.686;10.842;2023-02-11T12:29:13;12.30;48.70
23291;DHT22;11814;44.686;10.842;2023-02-11T12:39:49;12.40;48.70
23291;DHT22;11814;44.686;10.842;2023-02-11T12:43:19;12.50;48.70
23291;DHT22;11814;44.686;10.842;2023-02-11T12:56:39;12.50;49.40
23291;DHT22;11814;44.686;10.842;2023-02-11T12:59:31;12.60;49.20
23291;DHT22;11814;44.686;10.842;2023-02-11T13:01:59;12.70;49.00
23291;DHT22;11814;44.686;10.842;2023-02-11T13:04:35;12.70;48.90
23291;DHT22;11814;44.686;10.842;2023-02-11T13:07:08;12.80;48.80
23291;DHT22;11814;44.686;10.842;2023-02-11T13:10:41;12.90;48.70
23291;DHT22;11814;44.686;10.842;2023-02-11T13:12:35;12.90;48.60
23291;DHT22;11814;44.686;10.842;2023-02-11T13:15:20;12.90;48.60
23291;DHT22;11814;44.686;10.842;2023-02-11T13:20:48;12.90;48.40
23291;DHT22;11814;44.686;10.842;2023-02-11T13:23:22;12.90;48.50
23291;DHT22;11814;44.686;10.842;2023-02-11T13:25:54;12.80;48.50
23291;DHT22;11814;44.686;10.842;2023-02-11T13:30:51;12.70;48.70
23291;DHT22;11814;44.686;10.842;2023-02-11T13:33:35;12.60;48.70
23291;DHT22;11814;44.686;10.842;2023-02-11T13:38:28;12.60;49.00
23291;DHT22;11814;44.686;10.842;2023-02-11T13:43:34;12.20;48.90
23291;DHT22;11814;44.686;10.842;2023-02-11T13:46:07;12.20;49.10
23291;DHT22;11814;44.686;10.842;2023-02-11T13:51:07;12.00;49.30
23291;DHT22;11814;44.686;10.842;2023-02-11T13:53:55;11.90;49.40
23291;DHT22;11814;44.686;10.842;2023-02-11T13:56:36;11.80;49.40
23291;DHT22;11814;44.686;10.842;2023-02-11T13:59:08;11.70;49.30
23291;DHT22;11814;44.686;10.842;2023-02-11T14:02:18;11.60;49.90
23291;DHT22;11814;44.686;10.842;2023-02-11T14:16:18;11.40;49.50
23291;DHT22;11814;44.686;10.842;2023-02-11T14:37:52;11.30;50.50
23291;DHT22;11814;44.686;10.842;2023-02-11T14:40:48;11.30;50.70
23291;DHT22;11814;44.686;10.842;2023-02-11T14:43:19;11.30;50.60
23291;DHT22;11814;44.686;10.842;2023-02-11T14:45:53;11.20;50.60
23291;DHT22;11814;44.686;10.842;2023-02-11T14:48:26;11.20;50.80
23291;DHT22;11814;44.686;10.842;2023-02-11T14:51:09;11.20;50.90
23291;DHT22;11814;44.686;10.842;2023-02-11T14:53:36;11.20;51.00
23291;DHT22;11814;44.686;10.842;2023-02-11T14:56:17;11.30;50.90
23291;DHT22;11814;44.686;10.842;2023-02-11T14:58:47;11.20;50.90
23291;DHT22;11814;44.686;10.842;2023-02-11T15:01:33;11.20;51.00
23291;DHT22;11814;44.686;10.842;2023-02-11T15:04:04;11.20;50.80
23291;DHT22;11814;44.686;10.842;2023-02-11T15:06:34;11.20;50.70
23291;DHT22;11814;44.686;10.842;2023-02-11T15:09:33;11.30;50.80
23291;DHT22;11814;44.686;10.842;2023-02-11T15:12:02;11.30;50.50
23291;DHT22;11814;44.686;10.842;2023-02-11T15:14:32;11.30;50.30
23291;DHT22;11814;44.686;10.842;2023-02-11T15:17:02;11.20;50.30
23291;DHT22;11814;44.686;10.842;2023-02-11T15:19:31;11.10;50.20
23291;DHT22;11814;44.686;10.842;2023-02-11T15:22:01;11.10;50.30
23291;DHT22;11814;44.686;10.842;2023-02-11T15:24:31;11.00;50.50
23291;DHT22;11814;44.686;10.842;2023-02-11T15:27:02;10.90;50.60
23291;DHT22;11814;44.686;10.842;2023-02-11T15:29:40;10.90;50.90
23291;DHT22;11814;44.686;10.842;2023-02-11T15:32:13;10.90;51.60
23291;DHT22;11814;44.686;10.842;2023-02-11T15:34:40;10.90;52.00
23291;DHT22;11814;44.686;10.842;2023-02-11T15:37:06;10.90;52.10
23291;DHT22;11814;44.686;10.842;2023-02-11T15:42:18;10.90;52.80
23291;DHT22;11814;44.686;10.842;2023-02-11T15:44:45;10.90;53.20
23291;DHT22;11814;44.686;10.842;2023-02-11T15:47:15;10.90;52.80
23291;DHT22;11814;44.686;10.842;2023-02-11T15:49:46;10.80;52.50
23291;DHT22;11814;44.686;10.842;2023-02-11T15:52:23;10.80;52.50
23291;DHT22;11814;44.686;10.842;2023-02-11T15:54:51;10.80;52.50
23291;DHT22;11814;44.686;10.842;2023-02-11T15:57:19;10.70;52.50
23291;DHT22;11814;44.686;10.842;2023-02-11T15:59:51;10.70;52.50
23291;DHT22;11814;44.686;10.842;2023-02-11T16:04:56;10.50;52.80
23291;DHT22;11814;44.686;10.842;2023-02-11T16:10:33;10.40;53.20
23291;DHT22;11814;44.686;10.842;2023-02-11T16:16:02;10.20;53.60
23291;DHT22;11814;44.686;10.842;2023-02-11T16:18:42;10.10;54.10
23291;DHT22;11814;44.686;10.842;2023-02-11T16:21:14;9.90;54.20
23291;DHT22;11814;44.686;10.842;2023-02-11T16:23:42;9.90;54.30
23291;DHT22;11814;44.686;10.842;2023-02-11T16:26:28;9.80;54.50
23291;DHT22;11814;44.686;10.842;2023-02-11T16:29:15;9.80;54.70
23291;DHT22;11814;44.686;10.842;2023-02-11T16:31:43;9.70;54.80
23291;DHT22;11814;44.686;10.842;2023-02-11T16:36:38;9.50;55.20
23291;DHT22;11814;44.686;10.842;2023-02-11T16:39:04;9.40;55.50
23291;DHT22;11814;44.686;10.842;2023-02-11T16:41:29;9.30;55.70
23291;DHT22;11814;44.686;10.842;2023-02-11T16:43:58;9.30;56.10
23291;DHT22;11814;44.686;10.842;2023-02-11T16:46:24;9.10;56.10
23291;DHT22;11814;44.686;10.842;2023-02-11T16:48:52;9.00;56.10
23291;DHT22;11814;44.686;10.842;2023-02-11T16:51:18;8.90;56.10
23291;DHT22;11814;44.686;10.842;2023-02-11T16:53:44;8.80;56.10
23291;DHT22;11814;44.686;10.842;2023-02-11T16:56:16;8.80;56.30
23291;DHT22;11814;44.686;10.842;2023-02-11T16:58:43;8.70;56.40
23291;DHT22;11814;44.686;10.842;2023-02-11T17:01:09;8.60;56.60
23291;DHT22;11814;44.686;10.842;2023-02-11T17:03:36;8.50;56.70
23291;DHT22;11814;44.686;10.842;2023-02-11T17:06:07;8.40;56.80
23291;DHT22;11814;44.686;10.842;2023-02-11T17:08:34;8.30;56.90
23291;DHT22;11814;44.686;10.842;2023-02-11T17:11:00;8.20;57.00
23291;DHT22;11814;44.686;10.842;2023-02-11T17:13:26;8.10;57.20
23291;DHT22;11814;44.686;10.842;2023-02-11T17:15:52;8.00;57.40
23291;DHT22;11814;44.686;10.842;2023-02-11T17:18:18;8.00;57.60
23291;DHT22;11814;44.686;10.842;2023-02-11T17:20:44;7.90;57.80
23291;DHT22;11814;44.686;10.842;2023-02-11T17:23:10;7.80;58.00
23291;DHT22;11814;44.686;10.842;2023-02-11T17:25:35;7.80;58.20
23291;DHT22;11814;44.686;10.842;2023-02-11T17:28:03;7.70;58.30
23291;DHT22;11814;44.686;10.842;2023-02-11T17:30:29;7.70;58.60
23291;DHT22;11814;44.686;10.842;2023-02-11T17:32:55;7.60;58.70
23291;DHT22;11814;44.686;10.842;2023-02-11T17:35:21;7.50;58.80
23291;DHT22;11814;44.686;10.842;2023-02-11T17:37:46;7.50;59.40
23291;DHT22;11814;44.686;10.842;2023-02-11T17:40:13;7.40;59.80
23291;DHT22;11814;44.686;10.842;2023-02-11T17:42:39;7.30;60.00
23291;DHT22;11814;44.686;10.842;2023-02-11T17:45:05;7.20;60.40
23291;DHT22;11814;44.686;10.842;2023-02-11T17:47:31;7.20;60.90
23291;DHT22;11814;44.686;10.842;2023-02-11T17:49:57;7.20;60.90
23291;DHT22;11814;44.686;10.842;2023-02-11T17:52:22;7.10;60.90
23291;DHT22;11814;44.686;10.842;2023-02-11T17:54:49;7.10;60.90
23291;DHT22;11814;44.686;10.842;2023-02-11T17:57:15;7.10;61.00
23291;DHT22;11814;44.686;10.842;2023-02-11T17:59:41;7.00;61.00
23291;DHT22;11814;44.686;10.842;2023-02-11T18:02:10;6.90;61.00
23291;DHT22;11814;44.686;10.842;2023-02-11T18:04:36;6.90;61.00
23291;DHT22;11814;44.686;10.842;2023-02-11T18:07:02;6.80;61.30
23291;DHT22;11814;44.686;10.842;2023-02-11T18:09:27;6.70;61.80
23291;DHT22;11814;44.686;10.842;2023-02-11T18:11:53;6.70;62.30
23291;DHT22;11814;44.686;10.842;2023-02-11T18:14:21;6.60;62.80
23291;DHT22;11814;44.686;10.842;2023-02-11T18:16:51;6.50;63.10
23291;DHT22;11814;44.686;10.842;2023-02-11T18:19:18;6.40;63.10
23291;DHT22;11814;44.686;10.842;2023-02-11T18:21:43;6.30;63.00
23291;DHT22;11814;44.686;10.842;2023-02-11T18:24:09;6.20;62.90
23291;DHT22;11814;44.686;10.842;2023-02-11T18:26:36;6.20;63.00
23291;DHT22;11814;44.686;10.842;2023-02-11T18:29:02;6.10;63.10
23291;DHT22;11814;44.686;10.842;2023-02-11T18:31:29;6.10;63.50
23291;DHT22;11814;44.686;10.842;2023-02-11T18:33:54;6.00;63.60
23291;DHT22;11814;44.686;10.842;2023-02-11T18:36:21;5.90;63.80